createdAt,value
2019-02-11T00:01:30.317Z,6.05
2019-02-11T00:03:59.951Z,6.09
2019-02-11T00:06:28.859Z,6.08
2019-02-11T00:08:57.625Z,6.12
2019-02-11T00:11:26.338Z,6.14
2019-02-11T00:13:55.018Z,6.19
2019-02-11T00:16:23.858Z,6.21
2019-02-11T00:18:52.598Z,6.31
2019-02-11T00:21:21.218Z,6.28
2019-02-11T00:23:49.878Z,6.24
2019-02-11T00:26:18.521Z,6.19
2019-02-11T00:28:47.220Z,6.15
2019-02-11T00:31:15.997Z,6.08
2019-02-11T00:33:44.658Z,6.03
2019-02-11T00:36:13.298Z,5.97
2019-02-11T00:38:41.977Z,5.93
2019-02-11T00:41:10.838Z,5.87
2019-02-11T00:43:39.477Z,5.90
2019-02-11T00:46:08.159Z,5.92
2019-02-11T00:48:36.838Z,5.93
2019-02-11T00:51:05.518Z,5.97
2019-02-11T00:53:34.206Z,5.94
2019-02-11T00:56:02.917Z,5.95
2019-02-11T00:58:31.577Z,6.03
2019-02-11T01:01:00.510Z,6.04
2019-02-11T01:03:29.277Z,6.15
2019-02-11T01:05:57.937Z,6.10
2019-02-11T01:08:26.599Z,5.96
2019-02-11T01:10:55.277Z,5.98
2019-02-11T01:13:27.824Z,6.05
2019-02-11T01:15:54.339Z,5.96
2019-02-11T01:18:22.997Z,5.90
2019-02-11T01:20:51.638Z,5.82
2019-02-11T01:23:20.317Z,5.72
2019-02-11T01:25:48.977Z,5.65
2019-02-11T01:28:17.638Z,5.46
2019-02-11T01:30:46.339Z,5.35
2019-02-11T01:33:15.017Z,5.49
2019-02-11T01:35:43.777Z,5.33
2019-02-11T01:38:12.517Z,5.40
2019-02-11T01:40:41.257Z,5.41
2019-02-11T01:43:09.917Z,5.66
2019-02-11T01:45:38.561Z,5.82
2019-02-11T01:48:07.259Z,5.84
2019-02-11T01:50:35.897Z,5.91
2019-02-11T01:53:04.537Z,5.93
2019-02-11T01:55:33.177Z,6.02
2019-02-11T01:58:01.839Z,6.13
2019-02-11T02:00:30.498Z,6.27
2019-02-11T02:02:59.117Z,6.23
2019-02-11T02:05:27.977Z,6.13
2019-02-11T02:07:56.597Z,6.12
2019-02-11T02:10:25.297Z,6.14
2019-02-11T02:12:54.023Z,6.15
2019-02-11T02:15:22.665Z,6.23
2019-02-11T02:17:51.417Z,6.14
2019-02-11T02:20:20.084Z,6.15
2019-02-11T02:22:48.758Z,6.18
2019-02-11T02:25:17.377Z,6.12
2019-02-11T02:27:46.037Z,6.13
2019-02-11T02:30:14.890Z,6.13
2019-02-11T02:32:43.549Z,6.13
2019-02-11T02:35:12.169Z,6.13
2019-02-11T02:37:40.856Z,5.99
2019-02-11T02:40:10.267Z,5.98
2019-02-11T02:42:39.038Z,5.95
2019-02-11T02:45:09.221Z,5.98
2019-02-11T02:47:37.850Z,5.99
2019-02-11T02:50:08.841Z,6.03
2019-02-11T02:52:37.541Z,6.04
2019-02-11T02:55:07.710Z,6.13
2019-02-11T02:57:36.330Z,6.16
2019-02-11T03:00:09.735Z,6.22
2019-02-11T03:02:38.453Z,6.22
2019-02-11T03:05:08.931Z,6.16
2019-02-11T03:07:37.580Z,6.16
2019-02-11T03:10:10.790Z,6.20
2019-02-11T03:12:39.428Z,6.03
2019-02-11T03:15:10.408Z,6.03
2019-02-11T03:17:39.122Z,6.24
2019-02-11T03:20:11.469Z,6.32
2019-02-11T03:22:40.118Z,6.24
2019-02-11T03:25:09.391Z,6.18
2019-02-11T03:27:38.022Z,6.26
2019-02-11T03:30:09.472Z,6.15
2019-02-11T03:32:38.298Z,6.20
2019-02-11T03:35:07.059Z,6.25
2019-02-11T03:37:35.793Z,6.14
2019-02-11T03:40:06.139Z,6.09
2019-02-11T03:42:34.821Z,6.10
2019-02-11T03:45:03.810Z,6.16
2019-02-11T03:47:32.510Z,6.15
2019-02-11T03:50:01.139Z,6.06
2019-02-11T03:52:29.832Z,5.94
2019-02-11T03:54:58.480Z,5.94
2019-02-11T03:57:27.178Z,6.08
2019-02-11T03:59:55.914Z,6.14
2019-02-11T04:02:24.613Z,6.13
2019-02-11T04:04:53.250Z,5.98
2019-02-11T04:07:21.950Z,6.10
2019-02-11T04:09:50.590Z,6.02
2019-02-11T04:12:19.673Z,6.02
2019-02-11T04:14:48.329Z,5.87
2019-02-11T04:17:17.019Z,5.83
2019-02-11T04:19:45.711Z,5.81
2019-02-11T04:22:14.434Z,5.86
2019-02-11T04:24:43.069Z,5.80
2019-02-11T04:27:11.689Z,5.80
2019-02-11T04:29:40.370Z,5.91
2019-02-11T04:32:09.008Z,5.89
2019-02-11T04:34:37.770Z,5.97
2019-02-11T04:37:06.432Z,5.87
2019-02-11T04:39:35.101Z,5.77
2019-02-11T04:42:03.787Z,5.66
2019-02-11T04:44:34.136Z,5.74
2019-02-11T04:47:03.030Z,5.75
2019-02-11T04:49:31.749Z,5.64
2019-02-11T04:52:00.394Z,5.67
2019-02-11T04:54:29.150Z,5.70
2019-02-11T04:56:57.769Z,5.68
2019-02-11T04:59:26.410Z,5.75
2019-02-11T05:01:55.070Z,5.95
2019-02-11T05:04:23.728Z,5.79
2019-02-11T05:06:52.475Z,5.76
2019-02-11T05:09:21.170Z,5.77
2019-02-11T05:11:49.871Z,5.80
2019-02-11T05:14:18.540Z,5.87
2019-02-11T05:16:47.293Z,5.87
2019-02-11T05:19:15.938Z,5.86
2019-02-11T05:21:44.620Z,5.88
2019-02-11T05:24:13.343Z,5.84
2019-02-11T05:26:42.071Z,5.97
2019-02-11T05:29:10.731Z,6.03
2019-02-11T05:31:39.450Z,5.99
2019-02-11T05:34:08.150Z,6.05
2019-02-11T05:36:36.832Z,5.95
2019-02-11T05:39:06.071Z,5.88
2019-02-11T05:41:34.750Z,6.10
2019-02-11T05:44:05.831Z,6.12
2019-02-11T05:46:33.811Z,5.94
2019-02-11T05:49:02.431Z,5.95
2019-02-11T05:51:31.091Z,5.88
2019-02-11T05:53:59.848Z,5.85
2019-02-11T05:56:28.489Z,5.90
2019-02-11T05:58:57.174Z,5.90
2019-02-11T06:01:25.892Z,5.79
2019-02-11T06:03:54.554Z,5.63
2019-02-11T06:06:23.198Z,5.63
2019-02-11T06:08:51.930Z,5.59
2019-02-11T06:11:20.573Z,5.60
2019-02-11T06:13:49.310Z,5.52
2019-02-11T06:16:17.950Z,5.31
2019-02-11T06:18:46.630Z,5.31
2019-02-11T06:21:15.279Z,5.30
2019-02-11T06:23:44.033Z,5.33
2019-02-11T06:26:12.670Z,5.31
2019-02-11T06:28:41.351Z,5.28
2019-02-11T06:31:09.999Z,5.27
2019-02-11T06:33:38.650Z,5.25
2019-02-11T06:36:12.452Z,5.26
2019-02-11T06:38:37.671Z,5.17
2019-02-11T06:41:06.354Z,5.20
2019-02-11T06:43:35.032Z,5.16
2019-02-11T06:46:03.712Z,5.08
2019-02-11T06:48:32.370Z,5.06
2019-02-11T06:51:01.130Z,5.09
2019-02-11T06:53:29.778Z,5.04
2019-02-11T06:55:58.470Z,5.04
2019-02-11T06:58:27.131Z,4.89
2019-02-11T07:00:55.750Z,4.87
2019-02-11T07:03:24.450Z,4.97
2019-02-11T07:05:53.153Z,4.98
2019-02-11T07:08:21.854Z,5.00
2019-02-11T07:10:55.609Z,4.95
2019-02-11T07:13:20.967Z,4.92
2019-02-11T07:15:49.631Z,4.87
2019-02-11T07:18:18.310Z,4.88
2019-02-11T07:20:46.971Z,4.91
2019-02-11T07:23:15.713Z,4.96
2019-02-11T07:25:44.350Z,4.92
2019-02-11T07:28:13.050Z,4.90
2019-02-11T07:30:41.730Z,4.86
2019-02-11T07:33:10.430Z,5.04
2019-02-11T07:35:39.073Z,5.24
2019-02-11T07:38:07.772Z,5.23
2019-02-11T07:40:36.439Z,5.26
2019-02-11T07:43:06.722Z,5.27
2019-02-11T07:45:39.992Z,5.21
2019-02-11T07:48:08.692Z,5.07
2019-02-11T07:50:37.330Z,5.12
2019-02-11T07:53:05.979Z,5.10
2019-02-11T07:55:34.732Z,5.01
2019-02-11T07:58:03.449Z,4.82
2019-02-11T08:00:32.109Z,4.76
2019-02-11T08:03:00.751Z,4.44
2019-02-11T08:05:29.436Z,4.14
2019-02-11T08:07:58.150Z,4.12
2019-02-11T08:10:26.822Z,4.17
2019-02-11T08:12:55.429Z,4.12
2019-02-11T08:15:24.110Z,4.13
2019-02-11T08:17:52.750Z,4.11
2019-02-11T08:20:21.450Z,4.00
2019-02-11T08:22:50.089Z,4.00
2019-02-11T08:25:18.798Z,4.07
2019-02-11T08:27:47.452Z,3.97
2019-02-11T08:30:16.241Z,3.82
2019-02-11T08:32:44.878Z,3.65
2019-02-11T08:35:13.509Z,3.54
2019-02-11T08:37:42.178Z,3.44
2019-02-11T08:40:11.212Z,3.29
2019-02-11T08:42:39.891Z,3.19
2019-02-11T08:45:10.450Z,3.24
2019-02-11T08:47:39.133Z,3.22
2019-02-11T08:50:09.389Z,3.16
2019-02-11T08:52:38.193Z,3.15
2019-02-11T08:55:08.309Z,3.07
2019-02-11T08:57:36.950Z,3.05
2019-02-11T09:00:10.490Z,3.05
2019-02-11T09:02:39.316Z,2.88
2019-02-11T09:05:08.203Z,2.78
2019-02-11T09:07:36.871Z,2.77
2019-02-11T09:10:11.084Z,2.77
2019-02-11T09:12:39.682Z,2.78
2019-02-11T09:15:10.850Z,2.75
2019-02-11T09:17:39.470Z,2.77
2019-02-11T09:20:10.283Z,2.84
2019-02-11T09:22:38.929Z,2.84
2019-02-11T09:25:10.052Z,2.74
2019-02-11T09:27:38.690Z,2.69
2019-02-11T09:30:16.083Z,2.59
2019-02-11T09:32:44.732Z,2.61
2019-02-11T09:35:13.354Z,2.66
2019-02-11T09:37:42.050Z,2.55
2019-02-11T09:40:15.552Z,2.65
2019-02-11T09:42:44.231Z,2.69
2019-02-11T09:45:21.691Z,2.68
2019-02-11T09:47:50.371Z,2.90
2019-02-11T09:50:25.021Z,3.02
2019-02-11T09:52:53.691Z,3.10
2019-02-11T09:55:25.310Z,3.16
2019-02-11T09:57:53.973Z,3.09
2019-02-11T10:00:22.671Z,2.96
2019-02-11T10:02:51.311Z,2.91
2019-02-11T10:05:20.016Z,2.88
2019-02-11T10:07:48.729Z,2.84
2019-02-11T10:10:17.410Z,2.87
2019-02-11T10:12:46.053Z,2.87
2019-02-11T10:15:14.750Z,2.79
2019-02-11T10:17:43.410Z,2.87
2019-02-11T10:20:13.588Z,2.88
2019-02-11T10:22:42.229Z,2.90
2019-02-11T10:25:14.189Z,2.83
2019-02-11T10:27:42.849Z,2.76
2019-02-11T10:30:13.430Z,2.85
2019-02-11T10:32:42.070Z,2.91
2019-02-11T10:35:12.274Z,3.00
2019-02-11T10:37:40.970Z,3.00
2019-02-11T10:40:11.673Z,3.15
2019-02-11T10:42:40.389Z,3.18
2019-02-11T10:45:11.749Z,3.20
2019-02-11T10:47:40.914Z,3.26
2019-02-11T10:50:12.390Z,3.27
2019-02-11T10:52:41.091Z,3.26
2019-02-11T10:55:14.676Z,3.24
2019-02-11T10:57:43.469Z,3.25
2019-02-11T11:00:14.908Z,3.32
2019-02-11T11:02:43.551Z,3.33
2019-02-11T11:05:13.230Z,3.32
2019-02-11T11:07:41.872Z,3.37
2019-02-11T11:10:13.508Z,3.44
2019-02-11T11:12:42.126Z,3.64
2019-02-11T11:15:11.210Z,3.83
2019-02-11T11:17:39.930Z,3.88
2019-02-11T11:20:11.189Z,4.01
2019-02-11T11:22:39.828Z,4.05
2019-02-11T11:25:09.591Z,4.27
2019-02-11T11:27:38.258Z,4.28
2019-02-11T11:30:13.290Z,4.33
2019-02-11T11:32:42.430Z,4.48
2019-02-11T11:35:11.110Z,4.56
2019-02-11T11:37:39.771Z,4.63
2019-02-11T11:40:19.038Z,4.73
2019-02-11T11:42:47.748Z,4.82
2019-02-11T11:45:22.509Z,4.83
2019-02-11T11:47:51.191Z,4.91
2019-02-11T11:50:19.831Z,4.94
2019-02-11T11:52:48.510Z,4.94
2019-02-11T11:55:19.734Z,5.20
2019-02-11T11:57:48.513Z,5.19
2019-02-11T12:00:28.391Z,5.30
2019-02-11T12:03:02.918Z,5.53
2019-02-11T12:05:27.498Z,4.25
2019-02-11T12:07:56.236Z,4.08
2019-02-11T12:10:24.900Z,4.09
2019-02-11T12:12:53.690Z,4.07
2019-02-11T12:15:24.433Z,4.15
2019-02-11T12:17:53.159Z,4.64
2019-02-11T12:20:21.894Z,5.49
2019-02-11T12:22:50.673Z,5.28
2019-02-11T12:25:19.344Z,5.02
2019-02-11T12:27:48.077Z,4.99
2019-02-11T12:30:24.768Z,5.07
2019-02-11T12:32:55.497Z,5.17
2019-02-11T12:35:23.810Z,5.03
2019-02-11T12:37:52.530Z,5.12
2019-02-11T12:40:21.247Z,5.14
2019-02-11T12:42:52.700Z,5.15
2019-02-11T12:45:22.654Z,5.03
2019-02-11T12:47:51.396Z,5.31
2019-02-11T12:50:20.116Z,5.18
2019-02-11T12:52:48.820Z,5.06
2019-02-11T12:55:18.652Z,5.01
2019-02-11T12:57:47.481Z,4.88
2019-02-11T13:00:21.166Z,4.65
2019-02-11T13:02:49.897Z,4.62
2019-02-11T13:05:22.246Z,4.84
2019-02-11T13:07:48.980Z,4.91
2019-02-11T13:10:20.246Z,4.82
2019-02-11T13:12:49.341Z,4.75
2019-02-11T13:15:42.779Z,5.02
2019-02-11T13:17:49.917Z,5.45
2019-02-11T13:20:19.595Z,5.13
2019-02-11T13:22:48.590Z,4.90
2019-02-11T13:25:18.241Z,4.75
2019-02-11T13:27:47.262Z,4.45
2019-02-11T13:30:24.156Z,4.26
2019-02-11T13:32:52.927Z,4.28
2019-02-11T13:35:21.641Z,4.48
2019-02-11T13:37:54.867Z,4.43
2019-02-11T13:40:20.821Z,4.30
2019-02-11T13:42:49.466Z,4.33
2019-02-11T13:45:21.536Z,4.25
2019-02-11T13:47:55.888Z,4.25
2019-02-11T13:50:23.396Z,4.37
2019-02-11T13:52:52.347Z,4.38
2019-02-11T13:55:21.261Z,4.46
2019-02-11T13:57:49.929Z,4.59
2019-02-11T14:00:22.260Z,4.71
2019-02-11T14:02:56.313Z,4.64
2019-02-11T14:05:25.076Z,4.56
2019-02-11T14:07:53.929Z,4.60
2019-02-11T14:10:22.653Z,4.60
2019-02-11T14:12:51.438Z,4.78
2019-02-11T14:15:21.420Z,4.66
2019-02-11T14:18:09.445Z,4.75
2019-02-11T14:20:28.459Z,4.74
2019-02-11T14:22:57.752Z,4.83
2019-02-11T14:25:42.021Z,5.21
2019-02-11T14:27:58.304Z,5.60
2019-02-11T14:34:01.499Z,5.18
2019-02-11T14:36:30.838Z,4.77
2019-02-11T14:39:00.513Z,4.49
2019-02-11T14:41:30.043Z,4.28
2019-02-11T14:43:59.310Z,4.23
2019-02-11T14:46:28.758Z,4.33
2019-02-11T14:48:58.031Z,4.27
2019-02-11T14:51:27.626Z,4.23
2019-02-11T14:53:58.266Z,4.28
2019-02-11T14:56:27.747Z,4.04
2019-02-11T14:58:56.853Z,4.24
2019-02-11T15:01:26.347Z,3.98
2019-02-11T15:03:55.747Z,3.92
2019-02-11T15:06:25.586Z,4.09
2019-02-11T15:08:54.784Z,4.03
2019-02-11T15:11:24.266Z,4.15
2019-02-11T15:13:53.675Z,4.33
2019-02-11T15:16:23.266Z,4.49
2019-02-11T15:18:52.785Z,4.57
2019-02-11T15:21:22.185Z,5.00
2019-02-11T15:23:51.914Z,4.86
2019-02-11T15:26:21.506Z,4.30
2019-02-11T15:28:51.804Z,4.37
2019-02-11T15:31:21.057Z,4.64
2019-02-11T15:33:50.634Z,4.85
2019-02-11T15:36:20.225Z,4.53
2019-02-11T15:38:49.833Z,4.49
2019-02-11T15:41:19.340Z,4.52
2019-02-11T15:43:48.746Z,4.46
2019-02-11T15:46:18.346Z,4.40
2019-02-11T15:48:47.722Z,4.41
2019-02-11T15:51:17.746Z,4.36
2019-02-11T15:53:47.263Z,4.21
2019-02-11T15:56:17.065Z,4.18
2019-02-11T15:58:46.586Z,4.09
2019-02-11T16:01:15.865Z,3.96
2019-02-11T16:03:46.708Z,3.99
2019-02-11T16:06:16.226Z,4.02
2019-02-11T16:08:45.624Z,4.01
2019-02-11T16:11:15.103Z,4.01
2019-02-11T16:13:44.826Z,4.09
2019-02-11T16:16:14.425Z,4.11
2019-02-11T16:18:51.621Z,3.95
2019-02-11T16:21:15.275Z,3.82
2019-02-11T16:23:44.993Z,3.72
2019-02-11T16:26:14.586Z,3.69
2019-02-11T16:28:44.111Z,3.59
2019-02-11T16:31:13.847Z,3.62
2019-02-11T16:33:43.433Z,3.62
2019-02-11T16:36:13.316Z,3.59
2019-02-11T16:38:43.154Z,3.60
2019-02-11T16:41:12.757Z,3.52
2019-02-11T16:43:42.350Z,3.53
2019-02-11T16:46:11.863Z,3.62
2019-02-11T16:48:41.348Z,3.68
2019-02-11T16:51:10.745Z,3.45
2019-02-11T16:53:40.384Z,3.47
2019-02-11T16:56:09.793Z,3.57
2019-02-11T16:58:39.263Z,3.50
2019-02-11T17:01:08.784Z,3.53
2019-02-11T17:03:38.183Z,3.50
2019-02-11T17:06:07.874Z,3.70
2019-02-11T17:08:37.186Z,3.77
2019-02-11T17:11:06.713Z,3.83
2019-02-11T17:13:36.306Z,3.84
2019-02-11T17:16:06.114Z,3.82
2019-02-11T17:18:36.095Z,3.89
2019-02-11T17:21:05.624Z,3.90
2019-02-11T17:23:35.226Z,3.90
2019-02-11T17:26:04.825Z,3.88
2019-02-11T17:28:34.626Z,3.90
2019-02-11T17:31:04.474Z,3.86
2019-02-11T17:33:34.466Z,3.77
2019-02-11T17:36:04.070Z,3.79
2019-02-11T17:38:33.792Z,3.83
2019-02-11T17:41:03.514Z,3.85
2019-02-11T17:43:32.994Z,3.88
2019-02-11T17:46:03.425Z,3.82
2019-02-11T17:48:34.673Z,3.91
2019-02-11T17:51:04.385Z,3.86
2019-02-11T17:53:35.313Z,3.87
2019-02-11T17:56:05.116Z,3.99
2019-02-11T17:58:34.504Z,4.02
2019-02-11T18:01:04.632Z,4.00
2019-02-11T18:03:33.822Z,3.87
2019-02-11T18:06:05.382Z,3.88
2019-02-11T18:08:36.423Z,3.95
2019-02-11T18:11:06.001Z,4.05
2019-02-11T18:13:35.745Z,3.70
2019-02-11T18:16:06.154Z,3.88
2019-02-11T18:18:36.466Z,3.73
2019-02-11T18:21:06.385Z,3.60
2019-02-11T18:23:38.385Z,3.76
2019-02-11T18:26:08.777Z,3.81
2019-02-11T18:28:38.589Z,3.85
2019-02-11T18:31:08.191Z,3.85
2019-02-11T18:33:37.703Z,3.84
2019-02-11T18:36:06.906Z,3.81
2019-02-11T18:38:36.392Z,3.80
2019-02-11T18:41:06.298Z,3.80
2019-02-11T18:43:35.819Z,3.70
2019-02-11T18:46:06.849Z,3.60
2019-02-11T18:48:39.217Z,3.79
2019-02-11T18:51:11.377Z,3.76
2019-02-11T18:53:44.362Z,3.67
2019-02-11T18:56:14.115Z,3.69
2019-02-11T18:58:44.026Z,3.73
2019-02-11T19:01:13.785Z,3.77
2019-02-11T19:03:43.634Z,3.88
2019-02-11T19:06:13.433Z,3.91
2019-02-11T19:08:43.025Z,4.33
2019-02-11T19:11:12.865Z,4.36
2019-02-11T19:13:42.476Z,3.97
2019-02-11T19:16:12.195Z,3.93
2019-02-11T19:18:41.866Z,3.89
2019-02-11T19:21:11.385Z,3.81
2019-02-11T19:23:40.985Z,3.76
2019-02-11T19:26:10.704Z,3.72
2019-02-11T19:28:41.548Z,3.81
2019-02-11T19:31:11.144Z,3.78
2019-02-11T19:33:40.953Z,3.76
2019-02-11T19:36:10.754Z,3.79
2019-02-11T19:38:40.345Z,3.67
2019-02-11T19:41:09.864Z,3.73
2019-02-11T19:43:39.675Z,3.74
2019-02-11T19:46:09.273Z,3.70
2019-02-11T19:48:38.913Z,3.57
2019-02-11T19:51:08.506Z,3.60
2019-02-11T19:53:38.425Z,3.59
2019-02-11T19:56:08.116Z,3.58
2019-02-11T19:58:37.713Z,3.50
2019-02-11T20:01:07.354Z,3.48
2019-02-11T20:03:36.828Z,3.47
2019-02-11T20:06:06.554Z,3.29
2019-02-11T20:08:36.797Z,3.33
2019-02-11T20:11:06.544Z,3.42
2019-02-11T20:13:36.193Z,3.36
2019-02-11T20:16:06.113Z,3.36
2019-02-11T20:18:36.114Z,3.33
2019-02-11T20:21:05.633Z,3.26
2019-02-11T20:23:35.024Z,3.21
2019-02-11T20:26:04.905Z,3.30
2019-02-11T20:28:35.946Z,3.20
2019-02-11T20:31:05.357Z,3.33
2019-02-11T20:33:34.994Z,3.27
2019-02-11T20:36:06.106Z,3.33
2019-02-11T20:38:36.036Z,3.29
2019-02-11T20:41:05.518Z,3.31
2019-02-11T20:43:35.146Z,3.27
2019-02-11T20:46:04.954Z,3.32
2019-02-11T20:48:34.468Z,3.29
2019-02-11T20:51:04.553Z,3.29
2019-02-11T20:53:34.584Z,3.31
2019-02-11T20:56:05.234Z,3.27
2019-02-11T20:58:35.033Z,3.27
2019-02-11T21:01:04.842Z,3.25
2019-02-11T21:03:34.433Z,3.25
2019-02-11T21:06:04.155Z,3.22
2019-02-11T21:08:33.753Z,3.24
2019-02-11T21:11:03.150Z,3.25
2019-02-11T21:13:32.756Z,3.31
2019-02-11T21:16:02.345Z,3.21
2019-02-11T21:18:31.865Z,3.15
2019-02-11T21:21:01.666Z,3.02
2019-02-11T21:23:31.274Z,2.83
2019-02-11T21:26:00.681Z,2.67
2019-02-11T21:28:30.514Z,2.62
2019-02-11T21:31:00.105Z,2.60
2019-02-11T21:33:29.586Z,2.49
2019-02-11T21:35:59.106Z,2.35
2019-02-11T21:38:28.595Z,2.21
2019-02-11T21:40:58.026Z,2.15
2019-02-11T21:43:27.634Z,2.11
2019-02-11T21:45:57.233Z,2.06
2019-02-11T21:48:27.664Z,2.01
2019-02-11T21:50:57.345Z,2.00
2019-02-11T21:53:26.866Z,2.02
2019-02-11T21:55:56.548Z,2.00
2019-02-11T21:58:25.868Z,1.89
2019-02-11T22:01:02.060Z,1.84
2019-02-11T22:03:26.706Z,1.81
2019-02-11T22:05:56.305Z,1.83
2019-02-11T22:08:25.705Z,1.79
2019-02-11T22:10:55.025Z,1.77
2019-02-11T22:13:24.545Z,1.78
2019-02-11T22:15:54.026Z,1.81
2019-02-11T22:18:31.425Z,1.84
2019-02-11T22:21:00.824Z,1.88
2019-02-11T22:23:30.226Z,1.85
2019-02-11T22:25:59.504Z,1.93
2019-02-11T22:28:29.037Z,1.86
2019-02-11T22:30:58.306Z,1.91
2019-02-11T22:33:27.826Z,1.82
2019-02-11T22:35:57.106Z,1.67
2019-02-11T22:38:26.746Z,1.77
2019-02-11T22:43:51.226Z,1.82
2019-02-11T22:46:20.506Z,1.73
2019-02-11T22:48:50.027Z,1.86
2019-02-11T22:51:19.434Z,1.85
2019-02-11T22:53:48.827Z,1.88
2019-02-11T22:56:18.346Z,2.03
2019-02-11T22:58:47.546Z,2.07
2019-02-11T23:01:20.624Z,2.10
2019-02-11T23:03:49.917Z,2.17
2019-02-11T23:06:19.545Z,2.21
2019-02-11T23:08:48.906Z,2.24
2019-02-11T23:11:18.225Z,2.26
2019-02-11T23:13:48.026Z,2.21
2019-02-11T23:16:17.353Z,2.27
2019-02-11T23:18:46.747Z,2.30
2019-02-11T23:21:16.146Z,2.28
2019-02-11T23:23:45.546Z,2.28
2019-02-11T23:26:14.746Z,2.29
2019-02-11T23:28:44.146Z,2.32
2019-02-11T23:31:13.546Z,2.28
2019-02-11T23:33:42.946Z,2.32
2019-02-11T23:36:12.344Z,2.30
2019-02-11T23:38:41.746Z,2.25
2019-02-11T23:41:11.026Z,2.25
2019-02-11T23:43:40.426Z,2.26
2019-02-11T23:46:10.149Z,2.22
2019-02-11T23:48:39.546Z,2.21
2019-02-11T23:51:08.946Z,2.19
2019-02-11T23:53:38.346Z,2.18
2019-02-11T23:56:07.747Z,2.16
2019-02-11T23:58:37.347Z,2.13
